createdAt,value
2019-04-23T00:00:05.608Z,100193.41
2019-04-23T00:06:16.945Z,100190.53
2019-04-23T00:08:42.178Z,100187.83
2019-04-23T00:13:44.259Z,100178.84
2019-04-23T00:16:12.847Z,100174.37
2019-04-23T00:18:42.276Z,100172.84
2019-04-23T00:21:34.128Z,100166.21
2019-04-23T00:24:13.929Z,100168.92
2019-04-23T00:26:52.122Z,100173.20
2019-04-23T00:29:19.970Z,100158.83
2019-04-23T00:31:32.894Z,100165.13
2019-04-23T00:34:01.031Z,100160.78
2019-04-23T00:39:01.769Z,100154.80
2019-04-23T00:41:39.146Z,100158.41
2019-04-23T00:46:35.142Z,100158.34
2019-04-23T00:49:14.982Z,100158.95
2019-04-23T00:51:36.813Z,100163.80
2019-04-23T00:54:05.912Z,100156.67
2019-04-23T00:59:05.310Z,100159.29
2019-04-23T01:01:47.745Z,100154.97
2019-04-23T01:04:11.824Z,100152.36
2019-04-23T01:06:32.126Z,100153.61
2019-04-23T01:09:03.817Z,100150.18
2019-04-23T01:11:34.253Z,100150.21
2019-04-23T01:16:33.297Z,100151.19
2019-04-23T01:19:44.480Z,100144.49
2019-04-23T01:21:41.265Z,100143.20
2019-04-23T01:24:30.781Z,100135.22
2019-04-23T01:27:46.031Z,100136.34
2019-04-23T01:32:38.290Z,100133.02
2019-04-23T01:35:13.859Z,100134.91
2019-04-23T01:37:36.895Z,100140.36
2019-04-23T01:40:09.675Z,100142.50
2019-04-23T01:42:40.617Z,100131.19
2019-04-23T01:45:07.426Z,100132.34
2019-04-23T01:47:38.855Z,100133.62
2019-04-23T01:50:14.391Z,100127.73
2019-04-23T01:52:39.877Z,100118.03
2019-04-23T01:55:09.989Z,100125.25
2019-04-23T01:57:37.528Z,100122.73
2019-04-23T02:00:08.522Z,100115.98
2019-04-23T02:02:46.501Z,100121.63
2019-04-23T02:05:09.046Z,100104.72
2019-04-23T02:07:44.483Z,100115.60
2019-04-23T02:10:13.867Z,100115.91
2019-04-23T02:12:42.284Z,100109.20
2019-04-23T02:15:12.133Z,100112.91
2019-04-23T02:17:38.307Z,100113.25
2019-04-23T02:20:14.711Z,100113.71
2019-04-23T02:25:39.343Z,100110.77
2019-04-23T02:28:01.846Z,100112.39
2019-04-23T02:30:55.023Z,100109.58
2019-04-23T02:33:10.718Z,100107.00
2019-04-23T02:38:27.260Z,100114.26
2019-04-23T02:45:43.340Z,100103.20
2019-04-23T02:48:10.935Z,100095.22
2019-04-23T02:53:09.346Z,100095.85
2019-04-23T02:58:02.443Z,100091.84
2019-04-23T03:05:44.720Z,100099.72
2019-04-23T03:08:00.411Z,100104.93
2019-04-23T03:10:32.263Z,100102.05
2019-04-23T03:13:21.279Z,100096.42
2019-04-23T03:24:11.302Z,100096.39
2019-04-23T03:26:47.662Z,100085.52
2019-04-23T03:35:09.443Z,100086.15
2019-04-23T03:36:39.784Z,100084.27
2019-04-23T03:38:56.624Z,100083.98
2019-04-23T03:43:57.171Z,100081.86
2019-04-23T03:46:46.739Z,100079.56
2019-04-23T03:51:38.259Z,100080.08
2019-04-23T03:54:16.307Z,100079.67
2019-04-23T04:04:22.735Z,100082.31
2019-04-23T04:09:17.268Z,100078.92
2019-04-23T04:14:12.154Z,100079.90
2019-04-23T04:16:34.199Z,100072.79
2019-04-23T04:26:43.768Z,100076.69
2019-04-23T04:34:21.630Z,100073.12
2019-04-23T04:36:45.043Z,100076.27
2019-04-23T04:41:40.728Z,100079.60
2019-04-23T04:44:35.647Z,100064.97
2019-04-23T04:46:43.833Z,100085.13
2019-04-23T04:49:23.300Z,100071.92
2019-04-23T04:54:09.276Z,100076.62
2019-04-23T04:56:40.361Z,100078.98
2019-04-23T05:01:43.770Z,100078.11
2019-04-23T05:04:14.019Z,100070.75
2019-04-23T05:06:43.908Z,100074.95
2019-04-23T05:09:14.636Z,100068.89
2019-04-23T05:11:45.322Z,100061.20
2019-04-23T05:14:28.272Z,100062.57
2019-04-23T05:16:35.629Z,100061.30
2019-04-23T05:19:58.842Z,100060.73
2019-04-23T05:21:57.658Z,100056.82
2019-04-23T05:24:19.363Z,100059.52
2019-04-23T05:26:59.708Z,100053.45
2019-04-23T05:31:42.666Z,100052.43
2019-04-23T05:34:12.617Z,100047.86
2019-04-23T05:41:43.655Z,100051.05
2019-04-23T05:44:15.486Z,100050.11
2019-04-23T05:49:14.391Z,100054.00
2019-04-23T05:51:50.746Z,100053.05
2019-04-23T05:54:12.824Z,100049.31
2019-04-23T05:56:56.278Z,100047.86
2019-04-23T05:59:30.069Z,100048.27
2019-04-23T06:01:53.738Z,100045.00
2019-04-23T06:09:13.876Z,100050.37
2019-04-23T06:17:21.294Z,100047.84
2019-04-23T06:21:10.200Z,100033.37
2019-04-23T06:23:46.460Z,100045.81
2019-04-23T06:26:33.150Z,100042.67
2019-04-23T06:28:46.679Z,100037.77
2019-04-23T06:31:10.902Z,100047.23
2019-04-23T06:33:41.415Z,100049.12
2019-04-23T06:36:13.597Z,100037.33
2019-04-23T06:38:47.503Z,100035.39
2019-04-23T06:41:08.618Z,100031.27
2019-04-23T06:43:52.817Z,100026.97
2019-04-23T06:46:12.052Z,100031.14
2019-04-23T06:48:40.834Z,100023.73
2019-04-23T06:51:20.258Z,100032.70
2019-04-23T06:53:47.913Z,100032.04
2019-04-23T06:56:13.200Z,100025.41
2019-04-23T06:58:43.310Z,100023.77
2019-04-23T07:01:13.342Z,100022.59
2019-04-23T07:06:28.484Z,100024.11
2019-04-23T07:11:23.325Z,100016.83
2019-04-23T07:13:54.635Z,100012.17
2019-04-23T07:16:17.923Z,100012.14
2019-04-23T07:18:47.018Z,100007.34
2019-04-23T07:21:17.825Z,100010.45
2019-04-23T07:28:53.267Z,100012.37
2019-04-23T07:31:29.641Z,100007.36
2019-04-23T07:33:55.770Z,100007.46
2019-04-23T07:36:31.017Z,100004.09
2019-04-23T07:39:14.331Z,100008.27
2019-04-23T07:42:03.365Z,100002.56
2019-04-23T07:44:54.530Z,100009.87
2019-04-23T07:47:33.698Z,100006.52
2019-04-23T07:50:19.087Z,100006.06
2019-04-23T07:52:40.662Z,99998.31
2019-04-23T07:55:08.316Z,100001.20
2019-04-23T07:57:38.155Z,99992.53
2019-04-23T08:00:09.818Z,99999.66
2019-04-23T08:02:37.709Z,99994.34
2019-04-23T08:05:21.558Z,99992.97
2019-04-23T08:10:12.389Z,99989.98
2019-04-23T08:12:37.443Z,99990.16
2019-04-23T08:15:09.439Z,99986.73
2019-04-23T08:17:35.758Z,99978.02
2019-04-23T08:20:07.926Z,99963.25
2019-04-23T08:22:40.874Z,99969.63
2019-04-23T08:25:37.200Z,99967.72
2019-04-23T08:28:13.480Z,99970.13
2019-04-23T08:30:39.035Z,99965.98
2019-04-23T08:33:23.433Z,99968.75
2019-04-23T08:35:43.270Z,99960.69
2019-04-23T08:40:42.892Z,99961.39
2019-04-23T08:43:31.483Z,99969.06
2019-04-23T08:46:08.166Z,99971.25
2019-04-23T08:48:34.514Z,99970.05
2019-04-23T08:51:09.627Z,99970.05
2019-04-23T08:56:06.812Z,99956.93
2019-04-23T08:58:32.489Z,99956.93
2019-04-23T09:01:24.900Z,99961.19
2019-04-23T09:03:30.111Z,99952.82
2019-04-23T09:06:05.354Z,99952.82
2019-04-23T09:08:42.119Z,99954.61
2019-04-23T09:16:05.185Z,99956.36
2019-04-23T09:18:47.338Z,99948.81
2019-04-23T09:21:02.162Z,99947.59
2019-04-23T09:26:00.861Z,99950.33
2019-04-23T10:25:29.970Z,99903.56
2019-04-23T10:28:04.314Z,99909.14
2019-04-23T10:30:28.936Z,99914.42
2019-04-23T10:32:57.869Z,99903.00
2019-04-23T10:35:39.531Z,99903.73
2019-04-23T10:38:02.712Z,99903.22
2019-04-23T10:40:32.222Z,99891.88
2019-04-23T10:42:56.462Z,99896.51
2019-04-23T10:45:48.439Z,99894.66
2019-04-23T10:49:24.143Z,99894.77
2019-04-23T10:51:49.494Z,99894.97
2019-04-23T10:54:17.847Z,99902.90
2019-04-23T10:59:03.210Z,99901.96
2019-04-23T11:01:35.883Z,99904.77
2019-04-23T11:04:23.804Z,99905.38
2019-04-23T11:07:09.979Z,99899.20
2019-04-23T11:09:27.545Z,99897.84
2019-04-23T11:11:53.850Z,99896.00
2019-04-23T11:14:25.571Z,99883.59
2019-04-23T11:19:25.813Z,99886.07
2019-04-23T11:21:56.264Z,99882.13
2019-04-23T11:24:32.436Z,99881.73
2019-04-23T11:26:49.295Z,99883.05
2019-04-23T11:29:27.972Z,99885.23
2019-04-23T11:31:58.350Z,99887.27
2019-04-23T11:34:36.568Z,99888.11
2019-04-23T11:39:21.661Z,99882.77
2019-04-23T11:44:28.872Z,99877.23
2019-04-23T11:49:34.761Z,99893.23
2019-04-23T11:52:13.613Z,99884.91
2019-04-23T11:54:22.736Z,99874.77
2019-04-23T11:57:14.171Z,99871.75
2019-04-23T11:59:31.575Z,99866.09
2019-04-23T12:02:12.125Z,99865.08
2019-04-23T12:07:39.692Z,99859.81
2019-04-23T12:10:22.239Z,99861.56
2019-04-23T12:12:39.992Z,99862.97
2019-04-23T12:15:19.043Z,99865.66
2019-04-23T12:17:50.790Z,99868.75
2019-04-23T12:20:26.791Z,99870.70
2019-04-23T12:25:27.973Z,99852.03
2019-04-23T12:27:42.448Z,99853.69
2019-04-23T12:33:10.926Z,99849.15
2019-04-23T12:35:22.439Z,99846.30
2019-04-23T12:45:33.512Z,99830.41
2019-04-23T12:50:44.753Z,99833.97
2019-04-23T12:53:19.897Z,99825.22
2019-04-23T12:55:36.216Z,99817.58
2019-04-23T12:58:20.361Z,99822.12
2019-04-23T13:03:05.727Z,99818.57
2019-04-23T13:05:31.226Z,99810.37
2019-04-23T13:08:08.229Z,99805.44
2019-04-23T13:10:32.342Z,99823.04
2019-04-23T13:15:34.346Z,99818.30
2019-04-23T13:18:23.875Z,99799.98
2019-04-23T13:20:36.846Z,99803.34
2019-04-23T13:23:15.199Z,99799.30
2019-04-23T13:25:57.064Z,99802.09
2019-04-23T13:36:08.457Z,99799.28
2019-04-23T13:38:38.419Z,99801.78
2019-04-23T13:41:13.393Z,99796.13
2019-04-23T13:46:17.932Z,99792.81
2019-04-23T13:48:31.235Z,99796.56
2019-04-23T13:56:15.218Z,99806.48
2019-04-23T13:58:36.323Z,99815.46
2019-04-23T14:03:40.545Z,99803.58
2019-04-23T14:06:27.594Z,99808.14
2019-04-23T14:14:00.060Z,99796.84
2019-04-23T14:24:06.373Z,99795.55
2019-04-23T14:26:25.496Z,99796.47
2019-04-23T14:31:16.787Z,99799.25
2019-04-23T14:36:36.198Z,99800.20
2019-04-23T14:38:53.850Z,99800.09
2019-04-23T14:43:58.424Z,99797.50
2019-04-23T14:49:04.164Z,99793.38
2019-04-23T14:53:48.108Z,99784.70
2019-04-23T14:56:22.670Z,99788.69
2019-04-23T15:03:50.585Z,99788.80
2019-04-23T15:06:27.713Z,99786.41
2019-04-23T15:08:57.369Z,99782.16
2019-04-23T15:16:26.211Z,99790.02
2019-04-23T15:19:20.834Z,99784.53
2019-04-23T15:24:15.702Z,99787.69
2019-04-23T15:27:53.099Z,99787.10
2019-04-23T15:28:45.446Z,99786.97
2019-04-23T15:31:46.635Z,99792.88
2019-04-23T15:41:59.238Z,99787.20
2019-04-23T15:44:09.708Z,99784.95
2019-04-23T15:46:41.148Z,99784.84
2019-04-23T15:51:47.441Z,99778.72
2019-04-23T15:54:14.130Z,99780.55
2019-04-23T15:56:40.946Z,99786.23
2019-04-23T15:59:25.910Z,99790.91
2019-04-23T16:03:43.279Z,99789.78
2019-04-23T16:06:12.767Z,99794.15
2019-04-23T16:19:25.492Z,99801.94
2019-04-23T16:26:51.001Z,99810.08
2019-04-23T16:29:34.236Z,99809.45
2019-04-23T16:31:46.893Z,99816.08
2019-04-23T16:34:20.134Z,99808.84
2019-04-23T16:36:43.811Z,99820.19
2019-04-23T16:41:54.351Z,99817.27
2019-04-23T16:44:24.313Z,99812.63
2019-04-23T16:46:50.402Z,99819.64
2019-04-23T16:49:17.793Z,99819.02
2019-04-23T16:51:38.863Z,99824.38
2019-04-23T16:57:01.191Z,99824.45
2019-04-23T17:01:52.389Z,99826.20
2019-04-23T17:04:32.694Z,99819.09
2019-04-23T17:09:21.829Z,99826.42
2019-04-23T17:11:53.110Z,99824.05
2019-04-23T17:14:18.701Z,99817.45
2019-04-23T17:19:19.287Z,99834.42
2019-04-23T17:21:51.954Z,99820.81
2019-04-23T17:26:46.096Z,99815.86
2019-04-23T17:29:21.338Z,99815.58
2019-04-23T17:31:45.216Z,99819.91
2019-04-23T17:34:30.197Z,99817.11
2019-04-23T17:37:07.013Z,99816.05
2019-04-23T17:40:14.087Z,99820.06
2019-04-23T17:42:48.265Z,99822.30
2019-04-23T17:45:30.770Z,99826.23
2019-04-23T17:48:13.329Z,99825.87
2019-04-23T17:56:02.432Z,99830.78
2019-04-23T17:58:23.440Z,99831.89
2019-04-23T18:03:30.541Z,99831.27
2019-04-23T18:06:14.300Z,99828.10
2019-04-23T18:08:29.213Z,99831.58
2019-04-23T18:11:05.902Z,99837.23
2019-04-23T18:13:28.204Z,99839.30
2019-04-23T18:16:03.624Z,99845.98
2019-04-23T18:18:39.514Z,99842.19
2019-04-23T18:21:38.681Z,99835.41
2019-04-23T18:24:23.102Z,99837.38
2019-04-23T18:29:55.227Z,99842.81
2019-04-23T18:33:33.942Z,99850.30
2019-04-23T18:35:29.640Z,99847.80
2019-04-23T18:38:18.324Z,99861.09
2019-04-23T18:40:59.350Z,99858.80
2019-04-23T18:51:07.863Z,99861.64
2019-04-23T18:53:40.971Z,99862.73
2019-04-23T18:58:44.777Z,99863.28
2019-04-23T19:01:05.245Z,99868.66
2019-04-23T19:06:38.222Z,99877.38
2019-04-23T19:09:47.760Z,99885.16
2019-04-23T19:14:59.789Z,99889.39
2019-04-23T19:17:43.001Z,99884.19
2019-04-23T19:25:09.321Z,99896.78
2019-04-23T19:30:05.061Z,99901.58
2019-04-23T19:32:33.993Z,99906.17
2019-04-23T19:35:16.243Z,99900.13
2019-04-23T19:37:44.133Z,99898.41
2019-04-23T19:39:55.003Z,99893.67
2019-04-23T19:42:36.761Z,99894.98
2019-04-23T19:44:53.867Z,99903.32
2019-04-23T19:47:39.875Z,99902.16
2019-04-23T19:49:58.917Z,99898.85
2019-04-23T19:52:51.981Z,99903.29
2019-04-23T19:54:58.822Z,99895.66
2019-04-23T19:57:50.500Z,99903.34
2019-04-23T20:00:31.571Z,99897.44
2019-04-23T20:05:08.854Z,99894.48
2019-04-23T20:07:43.735Z,99897.70
2019-04-23T20:10:11.752Z,99898.96
2019-04-23T20:12:39.070Z,99894.06
2019-04-23T20:15:07.399Z,99894.64
2019-04-23T20:17:37.647Z,99898.27
2019-04-23T20:20:19.796Z,99902.38
2019-04-23T20:22:41.819Z,99898.38
2019-04-23T20:27:39.221Z,99904.59
2019-04-23T20:31:05.422Z,99902.30
2019-04-23T20:35:48.780Z,99895.02
2019-04-23T20:40:56.911Z,99883.59
2019-04-23T20:43:14.783Z,99881.04
2019-04-23T20:48:20.013Z,99879.74
2019-04-23T20:50:44.351Z,99882.57
2019-04-23T20:53:16.985Z,99882.34
2019-04-23T20:58:33.169Z,99890.06
2019-04-23T21:06:46.765Z,99887.77
2019-04-23T21:09:17.424Z,99877.92
2019-04-23T21:14:24.032Z,99870.55
2019-04-23T21:16:39.009Z,99889.55
2019-04-23T21:18:55.409Z,99889.55
2019-04-23T21:21:33.802Z,99881.81
2019-04-23T21:26:37.219Z,99885.86
2019-04-23T21:28:54.275Z,99880.95
2019-04-23T21:34:09.699Z,99886.48
2019-04-23T21:36:43.485Z,99876.46
2019-04-23T21:39:38.625Z,99876.46
2019-04-23T21:42:21.269Z,99873.75
2019-04-23T21:44:33.997Z,99873.28
2019-04-23T21:47:08.967Z,99873.28
2019-04-23T21:49:52.269Z,99871.73
2019-04-23T21:52:05.016Z,99871.28
2019-04-23T21:54:39.025Z,99868.99
2019-04-23T21:57:09.112Z,99870.45
2019-04-23T21:59:39.024Z,99870.45
2019-04-23T22:07:11.917Z,99859.82
2019-04-23T22:09:43.706Z,99858.51
2019-04-23T22:14:40.558Z,99854.75
2019-04-23T22:17:09.598Z,99847.91
2019-04-23T22:19:38.410Z,99842.25
2019-04-23T22:22:00.969Z,99842.25
2019-04-23T22:24:42.806Z,99844.47
2019-04-23T22:27:03.986Z,99838.63
2019-04-23T22:32:02.393Z,99821.88
2019-04-23T22:34:42.956Z,99821.88
2019-04-23T22:37:10.894Z,99821.88
2019-04-23T22:39:43.628Z,99820.04
2019-04-23T22:42:22.007Z,99823.20
2019-04-23T22:44:53.997Z,99823.20
2019-04-23T22:49:45.389Z,99812.44
2019-04-23T22:54:55.280Z,99809.41
2019-04-23T22:57:04.690Z,99809.41
2019-04-23T23:00:00.831Z,99803.43
2019-04-23T23:02:53.850Z,99803.43
2019-04-23T23:10:12.928Z,99797.48
2019-04-23T23:12:52.424Z,99783.87
2019-04-23T23:18:02.421Z,99786.32
2019-04-23T23:20:23.875Z,99789.84
2019-04-23T23:22:57.120Z,99787.50
2019-04-23T23:25:25.182Z,99783.52
2019-04-23T23:30:21.691Z,99789.02
2019-04-23T23:32:57.074Z,99779.20
2019-04-23T23:37:49.928Z,99775.08
2019-04-23T23:40:21.857Z,99775.08
2019-04-23T23:43:05.765Z,99768.24
2019-04-23T23:45:30.504Z,99764.58
2019-04-23T23:47:54.405Z,99758.59
2019-04-23T23:52:53.669Z,99767.56
2019-04-23T23:55:25.099Z,99758.45
2019-04-23T23:57:50.938Z,99755.28
